Time;durP1;ratioP1;P1;durP2;ratioP2;P2;SDS_P1;SDS_P2;PMS_P1;PMS_P2;Temp;Humidity;BMP_temperature;BMP_pressure;BME280_temperature;BME280_humidity;BME280_pressure;Samples;Min_cycle;Max_cycle;Signal;HPM_P1;HPM_P2
2021/04/10 00:02:16;;;;;;;12.88;3.55;;;6.60;99.90;;;;;;5000326;28;20073;-81
2021/04/10 00:04:42;;;;;;;12.80;4.50;;;6.60;99.90;;;;;;5022479;28;20826;-81
2021/04/10 00:07:09;;;;;;;11.70;3.13;;;6.60;99.90;;;;;;5007297;28;20518;-81
2021/04/10 00:09:38;;;;;;;13.95;3.78;;;6.60;99.90;;;;;;5004990;28;20069;-81
2021/04/10 00:12:05;;;;;;;10.43;4.13;;;6.60;99.90;;;;;;5021039;28;20501;-81
2021/04/10 00:14:31;;;;;;;11.45;3.10;;;6.60;99.90;;;;;;5014751;28;20109;-82
2021/04/10 00:16:57;;;;;;;9.65;3.08;;;6.60;99.90;;;;;;5023294;28;20052;-80
2021/04/10 00:19:23;;;;;;;7.50;3.00;;;6.60;99.90;;;;;;5006373;28;20104;-81
2021/04/10 00:21:50;;;;;;;12.55;4.43;;;6.60;99.90;;;;;;5006471;28;20149;-80
2021/04/10 00:24:16;;;;;;;12.48;3.15;;;6.60;99.90;;;;;;5013278;28;20054;-80
2021/04/10 00:26:42;;;;;;;11.30;3.28;;;6.50;99.90;;;;;;5007305;28;20104;-81
2021/04/10 00:29:08;;;;;;;12.05;3.58;;;6.50;99.90;;;;;;4999134;28;20507;-81
2021/04/10 00:31:35;;;;;;;10.63;3.63;;;6.50;99.90;;;;;;5005248;28;20060;-82
2021/04/10 00:34:02;;;;;;;9.80;3.50;;;6.40;99.90;;;;;;5007514;28;20046;-81
2021/04/10 00:36:28;;;;;;;14.52;3.40;;;6.40;99.90;;;;;;5020526;28;21709;-80
2021/04/10 00:38:54;;;;;;;7.53;2.80;;;6.40;99.90;;;;;;5005102;28;20053;-81
2021/04/10 00:41:21;;;;;;;11.07;4.43;;;6.40;99.90;;;;;;5005317;28;20117;-81
2021/04/10 00:43:48;;;;;;;12.38;3.78;;;6.40;99.90;;;;;;5004400;28;20140;-82
2021/04/10 00:46:14;;;;;;;9.15;3.30;;;6.30;99.90;;;;;;5013730;28;20092;-80
2021/04/10 00:48:40;;;;;;;12.85;3.28;;;6.30;99.90;;;;;;5017853;28;20129;-82
2021/04/10 00:51:07;;;;;;;10.07;3.08;;;6.30;99.90;;;;;;5020481;28;20117;-81
2021/04/10 00:53:35;;;;;;;7.50;2.80;;;6.30;99.90;;;;;;5010875;28;20133;-82
2021/04/10 00:56:06;;;;;;;11.00;3.47;;;6.20;99.90;;;;;;5003333;28;20070;-82
2021/04/10 00:58:34;;;;;;;12.00;2.97;;;6.20;99.90;;;;;;5012129;28;20057;-82
2021/04/10 01:01:02;;;;;;;11.63;3.53;;;6.20;99.90;;;;;;5009310;28;20104;-82
2021/04/10 01:03:29;;;;;;;11.50;3.15;;;6.20;99.90;;;;;;5019967;28;20112;-82
2021/04/10 01:05:55;;;;;;;5.95;2.63;;;6.10;99.90;;;;;;5021093;28;20508;-82
2021/04/10 01:08:22;;;;;;;11.35;3.25;;;6.10;99.90;;;;;;5001944;28;20053;-81
2021/04/10 01:10:48;;;;;;;7.60;2.28;;;6.10;99.90;;;;;;5007333;28;20480;-82
2021/04/10 01:13:42;;;;;;;12.13;3.00;;;6.10;99.90;;;;;;5003042;28;20069;-82
2021/04/10 01:16:15;;;;;;;18.65;4.40;;;6.10;99.90;;;;;;5006572;28;20068;-82
2021/04/10 01:19:02;;;;;;;10.02;2.15;;;6.10;99.90;;;;;;5012820;28;20081;-82
2021/04/10 01:21:38;;;;;;;12.75;2.58;;;6.00;99.90;;;;;;5021838;28;20050;-82
2021/04/10 01:24:19;;;;;;;11.93;3.33;;;6.00;99.90;;;;;;5019083;28;20046;-82
2021/04/10 01:27:04;;;;;;;9.02;2.10;;;6.10;99.90;;;;;;5019372;28;20448;-82
2021/04/10 01:29:33;;;;;;;;;;;6.00;99.90;;;;;;5002245;28;20459;-82
2021/04/10 01:32:00;;;;;;;10.88;2.40;;;6.00;99.90;;;;;;5002217;28;19925;-82
2021/04/10 01:34:31;;;;;;;8.05;2.15;;;6.00;99.90;;;;;;5006144;28;20064;-82
2021/04/10 01:37:11;;;;;;;10.38;2.00;;;6.00;99.90;;;;;;5006399;28;20130;-82
2021/04/10 01:39:40;;;;;;;10.85;3.20;;;6.00;99.90;;;;;;4990034;28;20045;-81
2021/04/10 01:42:10;;;;;;;10.10;2.00;;;6.00;99.90;;;;;;5021926;28;20464;-82
2021/04/10 01:44:37;;;;;;;13.30;2.13;;;6.00;99.90;;;;;;5006819;28;20176;-82
2021/04/10 01:47:07;;;;;;;10.65;2.42;;;6.00;99.90;;;;;;5021846;28;20410;-82
2021/04/10 01:49:34;;;;;;;6.95;1.55;;;6.00;99.90;;;;;;5022521;28;20050;-81
2021/04/10 01:52:04;;;;;;;7.93;2.10;;;6.00;99.90;;;;;;5000442;28;20529;-82
2021/04/10 01:54:32;;;;;;;5.88;1.90;;;6.00;99.90;;;;;;5008877;28;20113;-82
2021/04/10 01:56:59;;;;;;;7.45;1.70;;;5.90;99.90;;;;;;5021011;28;20664;-82
2021/04/10 01:59:26;;;;;;;8.50;3.13;;;5.90;99.90;;;;;;5005057;28;20128;-82
2021/04/10 02:01:54;;;;;;;11.32;2.58;;;5.90;99.90;;;;;;5004460;28;20521;-82
2021/04/10 02:04:21;;;;;;;9.48;2.55;;;5.90;99.90;;;;;;5020663;28;20061;-82
2021/04/10 02:06:49;;;;;;;7.28;2.25;;;6.00;99.90;;;;;;5009593;28;20049;-82
2021/04/10 02:09:17;;;;;;;9.05;2.58;;;6.00;99.90;;;;;;5007654;28;20417;-82
2021/04/10 02:11:48;;;;;;;15.13;2.78;;;6.00;99.90;;;;;;5022387;28;20132;-82
2021/04/10 02:14:15;;;;;;;5.40;1.63;;;6.00;99.90;;;;;;5000227;28;20065;-81
2021/04/10 02:16:42;;;;;;;8.48;1.90;;;6.00;99.90;;;;;;5022284;28;20387;-81
2021/04/10 02:19:09;;;;;;;11.18;2.05;;;6.00;99.90;;;;;;5008203;28;20055;-81
2021/04/10 02:21:38;;;;;;;7.03;2.35;;;6.00;99.90;;;;;;5024592;28;20050;-82
2021/04/10 02:24:07;;;;;;;6.00;1.95;;;5.90;99.90;;;;;;5004961;28;20478;-81
2021/04/10 02:26:33;;;;;;;11.10;1.80;;;5.90;99.90;;;;;;5022486;28;20084;-81
2021/04/10 02:29:00;;;;;;;11.00;2.20;;;5.90;99.90;;;;;;5006539;28;20116;-81
2021/04/10 02:31:47;;;;;;;10.85;2.05;;;5.90;99.90;;;;;;5020636;28;20050;-81
2021/04/10 02:34:19;;;;;;;6.95;2.65;;;5.90;99.90;;;;;;5007262;28;20084;-80
2021/04/10 02:36:49;;;;;;;9.82;2.30;;;5.90;99.90;;;;;;5027164;28;20113;-80
2021/04/10 02:39:18;;;;;;;14.38;2.65;;;5.90;99.90;;;;;;5023340;28;20416;-80
2021/04/10 02:41:49;;;;;;;9.68;1.88;;;5.90;99.90;;;;;;5001402;28;20076;-80
2021/04/10 02:44:21;;;;;;;8.95;1.90;;;5.90;99.90;;;;;;5024820;28;20057;-81
2021/04/10 02:46:51;;;;;;;10.10;2.75;;;5.90;99.90;;;;;;5010694;28;20082;-81
2021/04/10 02:49:24;;;;;;;10.20;2.20;;;5.90;99.90;;;;;;5018773;28;20048;-81
2021/04/10 02:51:54;;;;;;;17.77;3.00;;;5.90;99.90;;;;;;5020069;28;20057;-81
2021/04/10 02:54:23;;;;;;;9.43;2.17;;;5.90;99.90;;;;;;5019623;28;20050;-81
2021/04/10 02:57:01;;;;;;;9.85;2.05;;;5.90;99.90;;;;;;5037007;28;20137;-81
2021/04/10 02:59:29;;;;;;;9.55;2.10;;;5.90;99.90;;;;;;5021005;28;20056;-81
2021/04/10 03:01:58;;;;;;;15.35;2.40;;;5.90;99.90;;;;;;5023565;28;20053;-81
2021/04/10 03:04:26;;;;;;;10.77;1.92;;;5.90;99.90;;;;;;5034589;28;20058;-81
2021/04/10 03:06:52;;;;;;;11.27;2.50;;;5.90;99.90;;;;;;5035616;28;20111;-81
2021/04/10 03:09:19;;;;;;;8.50;2.55;;;5.90;99.90;;;;;;5032491;28;20070;-81
2021/04/10 03:11:46;;;;;;;7.88;2.20;;;5.90;99.90;;;;;;5028601;28;20053;-80
2021/04/10 03:14:12;;;;;;;13.90;2.78;;;5.90;99.90;;;;;;5010470;28;20053;-80
2021/04/10 03:16:41;;;;;;;8.40;1.67;;;5.90;99.90;;;;;;5009142;28;20073;-81
2021/04/10 03:19:09;;;;;;;13.02;2.63;;;5.90;99.90;;;;;;4997247;28;20053;-81
2021/04/10 03:21:37;;;;;;;12.98;2.38;;;5.90;99.90;;;;;;5025892;28;20151;-81
2021/04/10 03:24:04;;;;;;;9.00;2.83;;;5.80;99.90;;;;;;5018463;28;20386;-81
2021/04/10 03:26:31;;;;;;;12.38;2.35;;;5.80;99.90;;;;;;5004865;28;20113;-81
2021/04/10 03:28:58;;;;;;;7.57;2.72;;;5.80;99.90;;;;;;5018424;28;20061;-81
2021/04/10 03:31:25;;;;;;;9.20;3.13;;;5.80;99.90;;;;;;5021318;28;20053;-81
2021/04/10 03:33:51;;;;;;;12.63;2.70;;;5.80;99.90;;;;;;5005237;28;20069;-81
2021/04/10 03:36:18;;;;;;;13.10;2.22;;;5.80;99.90;;;;;;5018410;28;20053;-82
2021/04/10 03:38:44;;;;;;;10.30;1.80;;;5.80;99.90;;;;;;5000366;28;20066;-82
2021/04/10 03:41:11;;;;;;;11.75;2.88;;;5.80;99.90;;;;;;5002149;28;20205;-81
2021/04/10 03:43:37;;;;;;;6.60;2.35;;;5.80;99.90;;;;;;5018151;28;20065;-82
2021/04/10 03:46:03;;;;;;;6.05;2.10;;;5.70;99.90;;;;;;5018098;28;20056;-81
2021/04/10 03:48:30;;;;;;;8.27;2.08;;;5.70;99.90;;;;;;4999667;28;20030;-82
2021/04/10 03:50:59;;;;;;;12.85;3.28;;;5.70;99.90;;;;;;5014211;28;20078;-81
2021/04/10 03:53:26;;;;;;;5.95;1.83;;;5.70;99.90;;;;;;4996170;28;20817;-81
2021/04/10 03:55:52;;;;;;;8.80;2.05;;;5.70;99.90;;;;;;4999983;28;22839;-82
2021/04/10 03:58:18;;;;;;;6.05;2.40;;;5.70;99.90;;;;;;5003602;28;20042;-82
2021/04/10 04:00:44;;;;;;;5.65;1.77;;;5.70;99.90;;;;;;5002256;28;20058;-81
2021/04/10 04:03:11;;;;;;;14.27;3.08;;;5.70;99.90;;;;;;5018388;28;20141;-81
2021/04/10 04:05:37;;;;;;;10.15;2.25;;;5.70;99.90;;;;;;5003677;28;20062;-81
2021/04/10 04:08:03;;;;;;;7.57;2.03;;;5.70;99.90;;;;;;5021685;28;20065;-81
2021/04/10 04:10:29;;;;;;;12.25;2.10;;;5.70;99.90;;;;;;5023739;28;20081;-81
2021/04/10 04:12:56;;;;;;;5.88;2.33;;;5.70;99.90;;;;;;5015850;28;20520;-83
2021/04/10 04:15:22;;;;;;;6.47;1.52;;;5.70;99.90;;;;;;5017234;28;20053;-81
2021/04/10 04:17:48;;;;;;;7.38;2.20;;;5.70;99.90;;;;;;5006222;28;20157;-82
2021/04/10 04:20:15;;;;;;;12.85;1.98;;;5.70;99.90;;;;;;5023296;28;20496;-82
2021/04/10 04:22:42;;;;;;;14.15;2.38;;;5.60;99.90;;;;;;5008509;28;20052;-83
2021/04/10 04:25:09;;;;;;;10.82;1.92;;;5.60;99.90;;;;;;5010227;28;20064;-82
2021/04/10 04:27:36;;;;;;;7.72;2.47;;;5.60;99.90;;;;;;5003515;28;20061;-81
2021/04/10 04:30:07;;;;;;;4.30;1.60;;;5.60;99.90;;;;;;5006898;28;20049;-81
2021/04/10 04:32:33;;;;;;;6.97;1.60;;;5.60;99.90;;;;;;5005398;28;20504;-82
2021/04/10 04:35:00;;;;;;;7.72;1.60;;;5.60;99.90;;;;;;5009622;28;20052;-81
2021/04/10 04:37:26;;;;;;;7.57;2.47;;;5.60;99.90;;;;;;5006195;28;20125;-81
2021/04/10 04:39:52;;;;;;;7.95;1.65;;;5.60;99.90;;;;;;5002218;28;20050;-81
2021/04/10 04:42:19;;;;;;;9.10;1.92;;;5.50;99.90;;;;;;5009650;28;20055;-81
2021/04/10 04:44:45;;;;;;;14.40;2.22;;;5.50;99.90;;;;;;5019584;28;20583;-81
2021/04/10 04:47:11;;;;;;;9.27;1.90;;;5.50;99.90;;;;;;5008003;28;20144;-80
2021/04/10 04:49:38;;;;;;;13.02;1.70;;;5.50;99.90;;;;;;5020925;28;20135;-80
2021/04/10 04:52:05;;;;;;;7.20;2.38;;;5.50;99.90;;;;;;5018709;28;20061;-81
2021/04/10 04:54:31;;;;;;;7.32;1.50;;;5.50;99.90;;;;;;5018043;28;20145;-81
2021/04/10 04:56:58;;;;;;;8.20;1.50;;;5.50;99.90;;;;;;5005162;28;20206;-81
2021/04/10 04:59:24;;;;;;;10.52;2.55;;;5.50;99.90;;;;;;5005438;28;20064;-82
2021/04/10 05:01:50;;;;;;;9.15;1.92;;;5.50;99.90;;;;;;5018597;28;20057;-81
2021/04/10 05:04:17;;;;;;;8.70;1.70;;;5.50;99.90;;;;;;5020103;28;20517;-81
2021/04/10 05:06:43;;;;;;;14.60;1.65;;;5.50;99.90;;;;;;5018108;28;20149;-81
2021/04/10 05:09:10;;;;;;;9.93;1.85;;;5.50;99.90;;;;;;5016815;28;20061;-81
2021/04/10 05:11:36;;;;;;;6.80;1.70;;;5.50;99.90;;;;;;5002675;28;20053;-81
2021/04/10 05:14:04;;;;;;;12.00;2.47;;;5.50;99.90;;;;;;5008548;28;20406;-80
2021/04/10 05:16:30;;;;;;;8.75;1.95;;;5.50;99.90;;;;;;5006188;28;20078;-82
2021/04/10 05:18:57;;;;;;;7.85;1.67;;;5.50;99.90;;;;;;5015106;28;20038;-81
2021/04/10 05:21:24;;;;;;;7.75;1.45;;;5.50;99.90;;;;;;5016229;28;20137;-81
2021/04/10 05:23:50;;;;;;;13.75;1.95;;;5.50;99.90;;;;;;5016362;28;20155;-81
2021/04/10 05:26:17;;;;;;;8.40;1.27;;;5.50;99.90;;;;;;5008078;28;20104;-82
2021/04/10 05:28:43;;;;;;;13.90;2.38;;;5.50;99.90;;;;;;5008764;28;20054;-81
2021/04/10 05:31:10;;;;;;;7.15;2.15;;;5.50;99.90;;;;;;5026383;28;20058;-81
2021/04/10 05:33:36;;;;;;;11.48;1.95;;;5.50;99.90;;;;;;5016596;28;22038;-81
2021/04/10 05:36:03;;;;;;;6.28;1.60;;;5.50;99.90;;;;;;5007178;28;20144;-81
2021/04/10 05:38:29;;;;;;;7.68;1.75;;;5.50;99.90;;;;;;5011156;28;20113;-81
2021/04/10 05:40:56;;;;;;;8.57;1.75;;;5.50;99.90;;;;;;5017343;28;20054;-81
2021/04/10 05:43:22;;;;;;;10.13;1.40;;;5.50;99.90;;;;;;5012752;28;20058;-81
2021/04/10 05:45:49;;;;;;;9.00;1.80;;;5.50;99.90;;;;;;5027009;28;20077;-82
2021/04/10 05:48:15;;;;;;;9.70;1.80;;;5.50;99.90;;;;;;5004778;28;20065;-82
2021/04/10 05:50:41;;;;;;;4.47;1.30;;;5.50;99.90;;;;;;5001438;28;20119;-82
2021/04/10 05:53:08;;;;;;;8.05;1.63;;;5.50;99.90;;;;;;5020463;28;20137;-82
2021/04/10 05:55:34;;;;;;;7.95;2.03;;;5.50;99.90;;;;;;5005838;28;21626;-82
2021/04/10 05:58:00;;;;;;;6.57;2.13;;;5.50;99.90;;;;;;5007748;28;20049;-82
2021/04/10 06:00:27;;;;;;;8.90;2.80;;;5.60;99.90;;;;;;5013915;28;20117;-82
2021/04/10 06:02:55;;;;;;;12.20;3.53;;;5.70;99.90;;;;;;5008615;28;20072;-82
2021/04/10 06:05:22;;;;;;;12.95;1.75;;;5.70;99.90;;;;;;5004041;28;20049;-82
2021/04/10 06:07:49;;;;;;;9.52;1.70;;;5.70;99.90;;;;;;5025740;28;20060;-81
2021/04/10 06:10:16;;;;;;;7.30;2.00;;;5.80;99.90;;;;;;5024051;28;20132;-81
2021/04/10 06:12:43;;;;;;;11.30;1.80;;;5.80;99.90;;;;;;5023893;28;20089;-81
2021/04/10 06:15:10;;;;;;;10.38;2.40;;;5.80;99.90;;;;;;5012475;28;20050;-82
2021/04/10 06:17:37;;;;;;;8.63;2.20;;;5.90;99.90;;;;;;5002747;28;20144;-83
2021/04/10 06:20:05;;;;;;;5.28;2.20;;;5.90;99.90;;;;;;5005962;28;20101;-83
2021/04/10 06:22:36;;;;;;;10.93;2.00;;;6.00;99.90;;;;;;5023320;28;20065;-83
2021/04/10 06:25:05;;;;;;;10.82;2.97;;;6.00;99.90;;;;;;5005157;28;21606;-83
2021/04/10 06:27:33;;;;;;;10.88;2.65;;;6.00;99.90;;;;;;5004040;28;20085;-84
2021/04/10 06:29:59;;;;;;;12.90;2.85;;;6.10;99.90;;;;;;5021787;28;20096;-83
2021/04/10 06:32:25;;;;;;;13.75;2.85;;;6.10;99.90;;;;;;5016214;28;20049;-82
2021/04/10 06:34:52;;;;;;;9.93;2.65;;;6.10;99.90;;;;;;5021490;28;20137;-82
2021/04/10 06:37:18;;;;;;;11.73;3.40;;;6.20;99.90;;;;;;5016468;28;20459;-82
2021/04/10 06:39:44;;;;;;;11.88;2.90;;;6.20;99.90;;;;;;5002625;28;20136;-82
2021/04/10 06:42:12;;;;;;;15.52;4.20;;;6.30;99.90;;;;;;5005264;28;20077;-83
2021/04/10 06:44:38;;;;;;;8.90;3.28;;;6.40;99.90;;;;;;5022339;28;20053;-82
2021/04/10 06:47:05;;;;;;;12.63;2.88;;;6.50;99.90;;;;;;5024264;28;20050;-83
2021/04/10 06:49:32;;;;;;;13.50;2.47;;;6.50;99.90;;;;;;5006725;28;20065;-82
2021/04/10 06:51:59;;;;;;;10.30;2.53;;;6.60;99.90;;;;;;5003277;28;20096;-82
2021/04/10 06:54:34;;;;;;;9.73;3.60;;;6.70;99.90;;;;;;5000368;28;20132;-85
2021/04/10 06:57:11;;;;;;;9.50;2.67;;;6.70;99.90;;;;;;5021421;28;20085;-83
2021/04/10 06:59:50;;;;;;;16.05;3.22;;;6.80;99.90;;;;;;5021239;28;20569;-83
2021/04/10 07:02:17;;;;;;;8.05;2.10;;;6.80;99.90;;;;;;5019822;28;20084;-83
2021/04/10 07:04:44;;;;;;;12.85;2.30;;;6.90;99.90;;;;;;5004798;28;20054;-83
2021/04/10 07:07:12;;;;;;;17.02;2.92;;;6.90;99.90;;;;;;5007864;28;20105;-83
2021/04/10 07:09:39;;;;;;;9.68;1.90;;;6.90;99.90;;;;;;5004755;28;20165;-83
2021/04/10 07:12:07;;;;;;;11.80;1.90;;;7.00;99.90;;;;;;5004307;28;20045;-83
2021/04/10 07:14:34;;;;;;;7.03;1.63;;;7.00;99.90;;;;;;5009931;28;20520;-83
2021/04/10 07:17:02;;;;;;;11.93;2.35;;;7.00;99.90;;;;;;5009579;28;20054;-83
2021/04/10 07:19:29;;;;;;;10.95;2.92;;;7.00;99.90;;;;;;5009363;28;20061;-83
2021/04/10 07:22:15;;;;;;;8.95;1.42;;;7.10;99.90;;;;;;5004347;28;20156;-84
2021/04/10 07:24:50;;;;;;;7.40;1.80;;;7.10;99.90;;;;;;5022504;28;20056;-82
2021/04/10 07:27:24;;;;;;;9.95;2.05;;;7.20;99.90;;;;;;5003501;28;20049;-82
2021/04/10 07:29:52;;;;;;;;;;;7.20;99.90;;;;;;5004806;28;20453;-82
2021/04/10 07:32:25;;;;;;;7.88;1.10;;;7.30;99.90;;;;;;5005711;28;19931;-83
2021/04/10 07:34:52;;;;;;;;;;;7.30;99.90;;;;;;5008369;28;20156;-83
2021/04/10 07:37:39;;;;;;;10.90;2.13;;;7.30;99.90;;;;;;5005399;28;19921;-83
2021/04/10 07:40:07;;;;;;;7.13;1.13;;;7.40;99.90;;;;;;5003729;28;20113;-83
2021/04/10 07:42:39;;;;;;;9.30;1.30;;;7.50;99.90;;;;;;4993622;28;20057;-83
2021/04/10 07:45:21;;;;;;;5.18;1.02;;;7.60;99.90;;;;;;5022547;28;20056;-85
2021/04/10 07:47:48;;;;;;;4.38;0.90;;;7.60;99.90;;;;;;5007290;28;20140;-83
2021/04/10 07:50:26;;;;;;;5.13;1.00;;;7.70;99.90;;;;;;5021735;28;20075;-83
2021/04/10 07:52:53;;;;;;;5.00;0.80;;;7.80;99.90;;;;;;5004695;28;20127;-83
2021/04/10 07:55:42;;;;;;;6.60;0.93;;;7.90;99.90;;;;;;5012001;28;20618;-83
2021/04/10 07:58:23;;;;;;;7.97;0.73;;;7.90;99.90;;;;;;5005391;28;20061;-83
2021/04/10 08:00:51;;;;;;;3.90;0.80;;;7.90;99.90;;;;;;4995410;28;20133;-83
2021/04/10 08:03:30;;;;;;;2.17;0.52;;;8.00;99.90;;;;;;5000519;28;20709;-83
2021/04/10 08:06:04;;;;;;;3.45;0.75;;;8.00;99.90;;;;;;5024948;28;20057;-83
2021/04/10 08:08:31;;;;;;;;;;;8.10;99.60;;;;;;5022064;28;20066;-83
2021/04/10 08:11:05;;;;;;;5.55;0.85;;;8.00;98.50;;;;;;5004777;28;19929;-84
2021/04/10 08:13:33;;;;;;;4.93;1.02;;;8.00;99.70;;;;;;5015858;28;20046;-83
2021/04/10 08:16:17;;;;;;;5.38;0.57;;;8.00;99.90;;;;;;5002031;28;20050;-83
2021/04/10 08:18:47;;;;;;;3.42;0.60;;;8.20;98.70;;;;;;4995099;28;20053;-83
2021/04/10 08:21:15;;;;;;;4.57;0.60;;;8.30;97.80;;;;;;5006681;28;20124;-83
2021/04/10 08:23:45;;;;;;;3.55;0.85;;;8.30;98.00;;;;;;5006685;28;20041;-83
2021/04/10 08:26:13;;;;;;;7.30;0.90;;;8.30;98.20;;;;;;5006308;28;20129;-82
2021/04/10 08:28:40;;;;;;;5.22;1.10;;;8.40;98.60;;;;;;5000660;28;20042;-83
2021/04/10 08:31:07;;;;;;;4.88;1.50;;;8.50;98.10;;;;;;5020139;28;20119;-84
2021/04/10 08:33:34;;;;;;;3.00;0.90;;;8.50;97.50;;;;;;5010175;28;20133;-84
2021/04/10 08:36:04;;;;;;;2.40;0.70;;;8.50;97.90;;;;;;5007466;28;20076;-83
2021/04/10 08:38:33;;;;;;;4.43;0.82;;;8.60;98.20;;;;;;5005959;28;20188;-83
2021/04/10 08:41:05;;;;;;;5.63;1.27;;;8.60;97.90;;;;;;5020083;28;20053;-83
2021/04/10 08:43:35;;;;;;;4.05;0.47;;;8.70;97.20;;;;;;5004984;28;20049;-83
2021/04/10 08:46:04;;;;;;;2.40;0.60;;;8.80;95.90;;;;;;5023410;28;20050;-83
2021/04/10 08:48:32;;;;;;;3.95;0.50;;;8.80;95.90;;;;;;5024045;28;20482;-83
2021/04/10 08:51:03;;;;;;;4.57;0.98;;;8.80;96.10;;;;;;5009407;28;20117;-83
2021/04/10 08:53:45;;;;;;;9.50;1.02;;;8.80;96.60;;;;;;5009157;28;20073;-83
2021/04/10 08:56:16;;;;;;;5.30;0.93;;;8.90;96.20;;;;;;5006511;28;20137;-82
2021/04/10 08:58:42;;;;;;;8.93;1.00;;;9.00;97.20;;;;;;4999768;28;20537;-83
2021/04/10 09:01:17;;;;;;;5.60;0.77;;;9.00;96.40;;;;;;5006220;28;20121;-83
2021/04/10 09:03:47;;;;;;;12.55;2.40;;;9.20;97.30;;;;;;5008187;28;20046;-83
2021/04/10 09:06:36;;;;;;;5.00;1.10;;;9.30;96.60;;;;;;5005006;28;20105;-82
2021/04/10 09:09:12;;;;;;;2.90;1.20;;;9.40;95.40;;;;;;4998152;28;20140;-83
2021/04/10 09:11:43;;;;;;;3.85;0.90;;;9.50;95.10;;;;;;5004852;28;20562;-83
2021/04/10 09:14:11;;;;;;;12.02;1.27;;;9.60;95.30;;;;;;5022987;28;20136;-83
2021/04/10 09:16:46;;;;;;;3.95;0.70;;;9.70;93.90;;;;;;5009596;28;20058;-83
2021/04/10 09:19:19;;;;;;;6.38;1.75;;;9.90;93.10;;;;;;5014014;28;20046;-83
2021/04/10 09:21:46;;;;;;;6.50;0.75;;;10.00;92.60;;;;;;5014731;28;20109;-82
2021/04/10 09:24:37;;;;;;;2.03;0.93;;;10.20;93.00;;;;;;5023723;28;20053;-83
2021/04/10 09:27:18;;;;;;;3.45;0.63;;;10.50;91.90;;;;;;4995363;28;20132;-82
2021/04/10 09:29:57;;;;;;;7.70;0.80;;;10.70;91.60;;;;;;5019983;28;20049;-82
2021/04/10 09:32:35;;;;;;;3.30;1.27;;;10.70;88.10;;;;;;5006236;28;20048;-82
2021/04/10 09:35:06;;;;;;;1.08;0.68;;;10.90;84.60;;;;;;5018183;28;20497;-82
2021/04/10 09:37:32;;;;;;;6.72;0.80;;;10.80;86.20;;;;;;5019577;28;20073;-83
2021/04/10 09:40:04;;;;;;;4.40;0.70;;;10.70;85.20;;;;;;5018425;28;20069;-83
2021/04/10 09:42:44;;;;;;;5.97;0.88;;;10.60;86.30;;;;;;5007022;28;20400;-83
2021/04/10 09:45:22;;;;;;;4.03;0.85;;;10.60;87.50;;;;;;5006327;28;20513;-83
2021/04/10 09:48:01;;;;;;;6.43;0.80;;;10.50;82.80;;;;;;5005108;28;20048;-82
2021/04/10 09:50:40;;;;;;;4.65;1.25;;;10.40;86.00;;;;;;5004161;28;20049;-82
2021/04/10 09:53:12;;;;;;;6.93;0.85;;;10.40;86.80;;;;;;5012647;28;20097;-83
2021/04/10 09:55:41;;;;;;;5.20;0.65;;;10.40;88.40;;;;;;5022842;28;20122;-82
2021/04/10 09:58:19;;;;;;;5.57;1.00;;;10.50;88.60;;;;;;5005215;28;20137;-83
2021/04/10 10:00:50;;;;;;;9.15;1.30;;;10.60;90.80;;;;;;5020194;28;20116;-83
2021/04/10 10:03:24;;;;;;;5.95;1.42;;;10.50;91.80;;;;;;5023338;28;20104;-83
2021/04/10 10:06:15;;;;;;;4.60;1.05;;;10.60;91.50;;;;;;5023542;28;20417;-83
2021/04/10 10:08:43;;;;;;;4.00;1.10;;;10.60;90.50;;;;;;5004685;28;20045;-83
2021/04/10 10:11:11;;;;;;;4.90;1.67;;;10.60;91.90;;;;;;5009875;28;20096;-82
2021/04/10 10:13:38;;;;;;;6.22;1.13;;;10.60;92.30;;;;;;5013676;28;20104;-82
2021/04/10 10:16:05;;;;;;;7.63;1.50;;;10.60;93.10;;;;;;5009522;28;20062;-83
2021/04/10 10:18:34;;;;;;;7.70;1.23;;;10.70;91.70;;;;;;5010710;28;20137;-83
2021/04/10 10:21:03;;;;;;;6.38;1.15;;;10.70;91.80;;;;;;5013985;28;20501;-83
2021/04/10 10:23:54;;;;;;;3.78;1.23;;;10.70;90.70;;;;;;5030661;28;20132;-84
2021/04/10 10:26:29;;;;;;;5.10;1.08;;;10.60;90.70;;;;;;5007805;28;20511;-83
2021/04/10 10:29:02;;;;;;;7.10;1.45;;;10.50;91.60;;;;;;5024179;28;20557;-83
2021/04/10 10:31:39;;;;;;;12.13;1.85;;;10.50;91.10;;;;;;5008343;28;20137;-83
2021/04/10 10:34:10;;;;;;;5.38;1.85;;;10.40;90.80;;;;;;5025495;28;20132;-83
2021/04/10 10:36:39;;;;;;;13.68;1.67;;;10.30;91.60;;;;;;5005879;28;20085;-83
2021/04/10 10:39:07;;;;;;;7.82;2.10;;;10.20;92.90;;;;;;5022983;28;20046;-83
2021/04/10 10:41:44;;;;;;;4.18;1.08;;;10.20;92.30;;;;;;5024382;28;20145;-83
2021/04/10 10:44:11;;;;;;;4.75;1.60;;;10.20;92.40;;;;;;5007350;28;20049;-83
2021/04/10 10:46:38;;;;;;;3.65;1.35;;;10.30;92.60;;;;;;5025785;28;20405;-83
2021/04/10 10:49:11;;;;;;;5.75;1.00;;;10.30;92.40;;;;;;5007871;28;20045;-83
2021/04/10 10:51:41;;;;;;;6.70;1.20;;;10.20;91.80;;;;;;5024077;28;20569;-83
2021/04/10 10:54:08;;;;;;;6.47;1.75;;;10.20;91.20;;;;;;5005450;28;20273;-83
2021/04/10 10:56:36;;;;;;;5.72;1.40;;;10.10;91.50;;;;;;5008005;28;20046;-83
2021/04/10 10:59:05;;;;;;;7.20;2.35;;;10.10;92.50;;;;;;5007079;28;20458;-82
2021/04/10 11:01:38;;;;;;;4.78;0.90;;;10.10;91.50;;;;;;5022166;28;20054;-82
2021/04/10 11:04:17;;;;;;;4.47;1.25;;;10.00;90.50;;;;;;5007158;28;20463;-82
2021/04/10 11:06:47;;;;;;;5.07;1.10;;;9.90;90.90;;;;;;5025680;28;20611;-84
2021/04/10 11:09:28;;;;;;;6.45;1.33;;;9.80;91.80;;;;;;5007632;28;20533;-83
2021/04/10 11:12:03;;;;;;;7.70;1.80;;;9.90;92.60;;;;;;5023620;28;20049;-82
2021/04/10 11:14:39;;;;;;;4.10;1.02;;;10.20;93.20;;;;;;5009549;28;20477;-83
2021/04/10 11:17:08;;;;;;;12.30;2.30;;;10.40;91.70;;;;;;5007758;28;20049;-84
2021/04/10 11:19:40;;;;;;;7.53;1.35;;;10.60;91.90;;;;;;5025097;28;20073;-82
2021/04/10 11:22:13;;;;;;;2.92;1.25;;;10.70;90.50;;;;;;5005611;28;20057;-82
2021/04/10 11:24:42;;;;;;;6.53;1.58;;;10.70;90.50;;;;;;5025315;28;20056;-83
2021/04/10 11:27:20;;;;;;;7.05;1.50;;;10.90;90.60;;;;;;5010168;28;20584;-83
2021/04/10 11:30:03;;;;;;;6.43;1.98;;;11.10;89.40;;;;;;5020368;28;20165;-83
2021/04/10 11:32:43;;;;;;;7.15;1.30;;;11.30;87.30;;;;;;5009840;28;20548;-83
2021/04/10 11:35:20;;;;;;;3.17;0.77;;;11.40;86.80;;;;;;5007734;28;20057;-83
2021/04/10 11:37:54;;;;;;;3.90;1.15;;;11.50;85.40;;;;;;5008283;28;20424;-83
2021/04/10 11:40:28;;;;;;;3.35;0.93;;;11.50;82.50;;;;;;5013643;28;20541;-84
2021/04/10 11:43:14;;;;;;;4.35;0.80;;;11.50;83.80;;;;;;5022875;28;20049;-84
2021/04/10 11:45:44;;;;;;;5.85;1.20;;;11.40;83.90;;;;;;5002368;28;20120;-83
2021/04/10 11:48:18;;;;;;;5.88;0.95;;;11.30;86.00;;;;;;5006235;28;20089;-83
2021/04/10 11:50:58;;;;;;;6.05;1.50;;;11.20;87.60;;;;;;5001959;28;20440;-83
2021/04/10 11:53:35;;;;;;;6.18;1.73;;;11.20;89.70;;;;;;5005848;28;20124;-83
2021/04/10 11:56:30;;;;;;;7.70;2.00;;;11.10;88.40;;;;;;5007913;28;20053;-83
2021/04/10 11:59:07;;;;;;;7.47;1.67;;;11.10;87.60;;;;;;4998040;28;20126;-83
2021/04/10 12:01:34;;;;;;;4.30;1.40;;;11.00;88.60;;;;;;4992182;28;20057;-83
2021/04/10 12:04:03;;;;;;;7.38;1.38;;;10.90;90.20;;;;;;5001221;28;20142;-83
2021/04/10 12:06:40;;;;;;;3.08;1.10;;;10.70;91.10;;;;;;5022378;28;20045;-83
2021/04/10 12:09:09;;;;;;;4.55;1.65;;;10.70;90.80;;;;;;5019640;28;20045;-83
2021/04/10 12:11:39;;;;;;;5.25;1.33;;;10.70;90.70;;;;;;5023251;28;20705;-83
2021/04/10 12:14:08;;;;;;;5.80;1.35;;;10.60;92.50;;;;;;5007578;28;20081;-83
2021/04/10 12:16:34;;;;;;;5.65;1.23;;;10.50;91.70;;;;;;5007720;28;20592;-83
2021/04/10 12:19:05;;;;;;;10.05;1.40;;;10.50;91.60;;;;;;5010496;28;20045;-83
2021/04/10 12:21:35;;;;;;;5.18;1.60;;;10.50;92.80;;;;;;5016611;28;20045;-83
2021/04/10 12:24:02;;;;;;;3.78;1.17;;;10.40;93.00;;;;;;5022183;28;20547;-83
2021/04/10 12:26:28;;;;;;;8.07;2.10;;;10.40;93.30;;;;;;5001705;28;20053;-83
2021/04/10 12:28:54;;;;;;;8.70;1.40;;;10.40;94.30;;;;;;5013222;28;20092;-83
2021/04/10 12:31:22;;;;;;;8.55;2.55;;;10.40;94.30;;;;;;5008400;28;20089;-83
2021/04/10 12:33:48;;;;;;;8.77;1.80;;;10.50;94.20;;;;;;5022086;28;20099;-83
2021/04/10 12:36:15;;;;;;;10.43;3.97;;;10.50;95.70;;;;;;5023277;28;20073;-83
2021/04/10 12:38:42;;;;;;;6.20;1.92;;;10.60;94.50;;;;;;5023233;28;20102;-84
2021/04/10 12:41:08;;;;;;;10.85;2.78;;;10.70;93.00;;;;;;5007448;28;20050;-83
2021/04/10 12:43:35;;;;;;;5.70;1.60;;;10.70;93.10;;;;;;5002989;28;20076;-83
2021/04/10 12:46:02;;;;;;;4.30;1.40;;;10.70;91.90;;;;;;5023578;28;20117;-83
2021/04/10 12:48:29;;;;;;;10.07;2.28;;;10.60;92.30;;;;;;5006764;28;20052;-83
2021/04/10 12:50:55;;;;;;;25.08;8.85;;;10.50;92.00;;;;;;5023715;28;20118;-84
2021/04/10 12:53:22;;;;;;;8.95;2.58;;;10.30;93.20;;;;;;5022919;28;20092;-83
2021/04/10 12:55:52;;;;;;;5.22;2.10;;;10.20;94.70;;;;;;5017355;28;20069;-83
2021/04/10 12:58:24;;;;;;;2.03;1.02;;;10.10;94.50;;;;;;5003085;28;20046;-83
2021/04/10 13:00:51;;;;;;;14.68;6.18;;;9.90;94.80;;;;;;5021792;28;20053;-83
2021/04/10 13:03:17;;;;;;;10.68;4.25;;;9.80;96.40;;;;;;5011658;28;20114;-84
2021/04/10 13:05:43;;;;;;;10.57;2.65;;;9.60;97.70;;;;;;5007923;28;20109;-84
2021/04/10 13:08:09;;;;;;;5.28;2.10;;;9.50;98.80;;;;;;5012137;28;20060;-83